createdAt,value
2019-05-01T00:02:49.118Z,8.50
2019-05-01T00:07:51.184Z,8.50
2019-05-01T00:12:52.852Z,8.93
2019-05-01T00:17:54.406Z,9.30
2019-05-01T00:22:56.097Z,9.93
2019-05-01T00:27:57.674Z,10.57
2019-05-01T00:32:59.263Z,9.47
2019-05-01T00:38:00.825Z,9.30
2019-05-01T00:43:02.519Z,9.43
2019-05-01T00:48:04.200Z,8.23
2019-05-01T00:53:05.776Z,8.67
2019-05-01T00:58:15.039Z,9.03
2019-05-01T01:03:16.800Z,9.10
2019-05-01T01:08:18.403Z,8.97
2019-05-01T01:13:19.989Z,10.10
2019-05-01T01:18:21.536Z,9.43
2019-05-01T01:23:23.594Z,8.97
2019-05-01T01:28:25.259Z,8.57
2019-05-01T01:33:26.940Z,9.03
2019-05-01T01:38:28.487Z,8.87
2019-05-01T01:43:39.411Z,8.57
2019-05-01T01:48:41.055Z,8.77
2019-05-01T01:53:42.874Z,9.57
2019-05-01T01:58:44.653Z,9.73
2019-05-01T02:03:50.840Z,9.27
2019-05-01T02:08:56.641Z,8.73
2019-05-01T02:13:56.720Z,8.30
2019-05-01T02:18:58.436Z,8.70
2019-05-01T02:24:00.035Z,9.17
2019-05-01T02:29:09.332Z,10.07
2019-05-01T02:34:11.031Z,11.07
2019-05-01T02:39:13.534Z,12.60
2019-05-01T02:44:21.573Z,11.60
2019-05-01T02:49:31.109Z,12.03
2019-05-01T02:54:33.332Z,11.57
2019-05-01T02:59:36.122Z,16.90
2019-05-01T03:04:37.826Z,14.43
2019-05-01T03:09:40.196Z,16.30
2019-05-01T03:14:42.398Z,19.00
2019-05-01T03:19:49.407Z,19.07
2019-05-01T03:24:51.106Z,18.60
2019-05-01T03:29:52.836Z,19.93
2019-05-01T03:34:54.826Z,19.10
2019-05-01T03:39:56.520Z,19.13
2019-05-01T03:44:58.189Z,19.10
2019-05-01T03:50:00.324Z,18.47
2019-05-01T03:55:02.154Z,17.83
2019-05-01T04:00:06.014Z,18.47
2019-05-01T04:05:07.726Z,16.53
2019-05-01T04:10:09.719Z,16.80
2019-05-01T04:15:11.725Z,18.20
2019-05-01T04:20:13.373Z,18.47
2019-05-01T04:25:15.034Z,19.63
2019-05-01T04:30:23.255Z,18.47
2019-05-01T04:35:44.588Z,18.43
2019-05-01T04:40:46.282Z,19.60
2019-05-01T04:45:47.914Z,18.47
2019-05-01T04:50:49.590Z,19.43
2019-05-01T04:55:51.404Z,18.87
2019-05-01T05:00:53.215Z,18.50
2019-05-01T05:05:54.905Z,17.73
2019-05-01T05:10:58.379Z,17.53
2019-05-01T05:16:18.992Z,18.03
2019-05-01T05:21:20.668Z,17.40
2019-05-01T05:26:22.448Z,18.23
2019-05-01T05:31:25.065Z,16.43
2019-05-01T05:36:27.679Z,17.33
2019-05-01T05:41:30.376Z,16.40
2019-05-01T05:46:32.093Z,16.47
2019-05-01T05:52:04.285Z,15.60
2019-05-01T05:57:15.397Z,15.87
2019-05-01T06:02:37.276Z,16.40
2019-05-01T06:07:49.024Z,17.10
2019-05-01T06:13:17.874Z,16.93
2019-05-01T06:18:39.389Z,16.13
2019-05-01T06:24:06.359Z,15.67
2019-05-01T06:29:04.374Z,17.40
2019-05-01T06:34:06.088Z,17.30
2019-05-01T06:39:11.742Z,16.70
2019-05-01T06:44:18.158Z,17.77
2019-05-01T06:49:36.541Z,17.57
2019-05-01T06:54:38.322Z,16.53
2019-05-01T06:59:40.587Z,16.97
2019-05-01T07:04:42.910Z,17.20
2019-05-01T07:09:49.219Z,18.47
2019-05-01T07:14:50.818Z,17.67
2019-05-01T07:20:30.450Z,17.83
2019-05-01T07:25:34.915Z,17.10
2019-05-01T07:30:50.011Z,16.23
2019-05-01T07:35:49.804Z,17.00
2019-05-01T07:40:51.582Z,18.03
2019-05-01T07:46:02.358Z,15.77
2019-05-01T07:51:06.848Z,16.40
2019-05-01T07:56:08.871Z,16.80
2019-05-01T08:01:18.483Z,16.97
2019-05-01T08:06:21.859Z,15.73
2019-05-01T08:11:23.342Z,16.63
2019-05-01T08:16:25.089Z,16.83
2019-05-01T08:21:46.444Z,16.70
2019-05-01T08:26:49.446Z,16.73
2019-05-01T08:32:08.603Z,17.57
2019-05-01T08:37:10.318Z,16.93
2019-05-01T08:42:12.000Z,15.77
2019-05-01T08:47:25.783Z,16.23
2019-05-01T08:52:28.341Z,17.83
2019-05-01T08:57:34.570Z,17.87
2019-05-01T09:02:41.019Z,18.83
2019-05-01T09:07:40.314Z,17.87
2019-05-01T09:12:42.530Z,18.57
2019-05-01T09:24:13.174Z,19.70
2019-05-01T09:29:19.187Z,20.33
2019-05-01T09:34:21.162Z,22.20
2019-05-01T09:39:22.799Z,22.90
2019-05-01T09:44:24.423Z,22.97
2019-05-01T09:49:25.982Z,22.35
2019-05-01T09:54:34.830Z,23.33
2019-05-01T09:59:36.384Z,23.40
2019-05-01T10:04:37.978Z,21.13
2019-05-01T10:09:39.653Z,22.27
2019-05-01T10:14:41.227Z,22.40
2019-05-01T10:19:42.791Z,22.50
2019-05-01T10:24:44.361Z,23.60
2019-05-01T10:30:04.191Z,20.68
2019-05-01T10:35:19.129Z,18.80
2019-05-01T10:40:22.221Z,16.60
2019-05-01T10:45:22.760Z,14.75
2019-05-01T10:50:24.428Z,15.15
2019-05-01T10:55:26.848Z,11.50
2019-05-01T11:00:28.398Z,14.30
2019-05-01T11:05:29.960Z,13.60
2019-05-01T11:10:31.559Z,14.20
2019-05-01T11:15:33.245Z,13.53
2019-05-01T11:20:34.904Z,13.68
2019-05-01T11:25:39.677Z,14.47
2019-05-01T11:30:41.253Z,15.35
2019-05-01T11:36:20.664Z,13.90
2019-05-01T11:41:34.897Z,14.20
2019-05-01T11:46:36.475Z,15.25
2019-05-01T11:51:38.054Z,13.83
2019-05-01T11:56:39.723Z,11.30
2019-05-01T12:01:41.448Z,13.15
2019-05-01T12:06:43.069Z,12.30
2019-05-01T12:11:46.648Z,13.78
2019-05-01T12:17:05.561Z,14.70
2019-05-01T12:22:07.306Z,12.28
2019-05-01T12:27:09.054Z,11.33
2019-05-01T12:32:10.625Z,11.18
2019-05-01T12:37:23.365Z,11.57
2019-05-01T12:42:25.558Z,10.00
2019-05-01T12:47:48.416Z,9.13
2019-05-01T12:53:18.957Z,8.53
2019-05-01T12:58:20.552Z,9.83
2019-05-01T13:03:22.285Z,10.15
2019-05-01T13:08:23.855Z,9.68
2019-05-01T13:13:25.424Z,8.33
2019-05-01T13:18:27.001Z,9.10
2019-05-01T13:23:28.570Z,7.15
2019-05-01T13:28:49.910Z,7.08
2019-05-01T13:33:51.476Z,7.17
2019-05-01T13:38:53.069Z,6.67
2019-05-01T13:43:54.634Z,5.78
2019-05-01T13:48:56.217Z,6.55
2019-05-01T13:53:57.827Z,6.22
2019-05-01T13:58:59.569Z,7.05
2019-05-01T14:04:01.134Z,7.72
2019-05-01T14:09:05.179Z,8.63
2019-05-01T14:14:06.875Z,8.30
2019-05-01T14:19:08.473Z,8.10
2019-05-01T14:24:22.391Z,8.70
2019-05-01T14:29:23.976Z,7.75
2019-05-01T14:34:25.578Z,7.65
2019-05-01T14:39:27.165Z,7.55
2019-05-01T14:44:36.613Z,6.08
2019-05-01T14:49:32.329Z,7.15
2019-05-01T14:54:33.908Z,7.20
2019-05-01T14:59:35.488Z,6.10
2019-05-01T15:04:37.072Z,6.10
2019-05-01T15:09:38.636Z,5.70
2019-05-01T15:14:59.128Z,6.72
2019-05-01T15:20:03.277Z,5.83
2019-05-01T15:25:05.004Z,6.53
2019-05-01T15:30:07.300Z,6.58
2019-05-01T15:35:09.066Z,6.55
2019-05-01T15:40:27.364Z,6.10
2019-05-01T15:45:29.028Z,5.72
2019-05-01T15:50:30.702Z,5.78
2019-05-01T15:55:32.279Z,6.78
2019-05-01T16:00:33.839Z,6.12
2019-05-01T16:05:35.407Z,5.50
2019-05-01T16:10:44.560Z,5.85
2019-05-01T16:15:46.115Z,4.83
2019-05-01T16:20:47.833Z,5.03
2019-05-01T16:25:49.536Z,5.67
2019-05-01T16:30:51.240Z,5.35
2019-05-01T16:35:52.800Z,4.90
2019-05-01T16:41:01.820Z,4.95
2019-05-01T16:46:04.173Z,5.25
2019-05-01T16:51:05.845Z,5.12
2019-05-01T16:56:07.549Z,5.33
2019-05-01T17:01:14.445Z,5.83
2019-05-01T17:06:33.906Z,5.53
2019-05-01T17:11:35.570Z,5.55
2019-05-01T17:16:37.127Z,5.75
2019-05-01T17:21:38.789Z,6.03
2019-05-01T17:26:40.326Z,5.97
2019-05-01T17:31:41.930Z,6.33
2019-05-01T17:36:43.704Z,6.00
2019-05-01T17:41:45.268Z,6.28
2019-05-01T17:46:48.640Z,6.45
2019-05-01T17:51:50.320Z,6.72
2019-05-01T17:56:53.698Z,6.80
2019-05-01T18:02:10.236Z,8.08
2019-05-01T18:07:10.760Z,7.60
2019-05-01T18:12:12.456Z,8.55
2019-05-01T18:17:14.061Z,8.05
2019-05-01T18:22:26.946Z,7.95
2019-05-01T18:27:54.534Z,7.92
2019-05-01T18:32:56.696Z,8.58
2019-05-01T18:38:06.348Z,8.40
2019-05-01T18:43:07.723Z,10.85
2019-05-01T18:48:09.400Z,8.73
2019-05-01T18:53:12.534Z,18.40
2019-05-01T18:58:14.382Z,9.83
2019-05-01T19:03:16.135Z,8.35
2019-05-01T19:08:17.745Z,8.45
2019-05-01T19:13:20.053Z,7.95
2019-05-01T19:18:21.780Z,8.53
2019-05-01T19:23:27.713Z,8.15
2019-05-01T19:28:27.002Z,8.88
2019-05-01T19:33:28.791Z,8.63
2019-05-01T19:38:34.859Z,9.10
2019-05-01T19:43:35.888Z,9.60
2019-05-01T19:48:37.540Z,9.97
2019-05-01T19:53:39.115Z,8.93
2019-05-01T19:58:40.679Z,16.77
2019-05-01T20:03:42.313Z,9.33
2019-05-01T20:08:43.871Z,9.30
2019-05-01T20:13:45.555Z,8.88
2019-05-01T20:18:47.240Z,8.50
2019-05-01T20:23:48.907Z,9.50
2019-05-01T20:28:50.471Z,9.70
2019-05-01T20:33:52.178Z,8.77
2019-05-01T20:38:53.869Z,9.33
2019-05-01T20:43:55.468Z,9.67
2019-05-01T20:49:01.467Z,11.77
2019-05-01T20:54:00.521Z,10.37
2019-05-01T20:59:04.616Z,9.63
2019-05-01T21:04:17.191Z,9.23
2019-05-01T21:09:21.569Z,10.23
2019-05-01T21:14:23.253Z,10.60
2019-05-01T21:19:25.751Z,10.73
2019-05-01T21:24:28.350Z,12.77
2019-05-01T21:29:29.911Z,14.00
2019-05-01T21:34:33.317Z,16.20
2019-05-01T21:39:35.025Z,15.20
2019-05-01T21:44:36.691Z,15.13
2019-05-01T21:49:38.244Z,15.83
2019-05-01T21:54:39.813Z,15.47
2019-05-01T21:59:44.726Z,14.20
2019-05-01T22:04:44.816Z,14.73
2019-05-01T22:09:50.423Z,13.97
2019-05-01T22:14:57.237Z,14.60
2019-05-01T22:19:58.893Z,15.63
2019-05-01T22:25:09.824Z,14.70
2019-05-01T22:30:28.330Z,15.17
2019-05-01T22:35:32.708Z,15.63
2019-05-01T22:41:07.366Z,17.07
2019-05-01T22:46:16.448Z,16.17
2019-05-01T22:51:21.319Z,15.60
2019-05-01T22:56:23.665Z,17.23
2019-05-01T23:01:26.227Z,17.43
2019-05-01T23:06:27.781Z,17.30
2019-05-01T23:11:31.995Z,17.93
2019-05-01T23:16:39.220Z,18.33
2019-05-01T23:21:40.765Z,17.97
2019-05-01T23:26:42.318Z,18.50
2019-05-01T23:31:43.910Z,18.53
2019-05-01T23:36:45.480Z,17.67
2019-05-01T23:41:47.355Z,17.60
2019-05-01T23:46:48.926Z,18.53
2019-05-01T23:51:50.620Z,17.33
2019-05-01T23:56:52.268Z,18.10
